Terminal Aerodrome Forecast
Issued by NWS Jackson, KY

Home | Current Version | Previous Version | Text Only | Print | Product List | Glossary On
Versions: 1 2 3 4 5 6 7 8 9 10 11 12 13 14 15 16 17 18 19 20 21 22 23 24 25 26 27 28 29 30
000
FTUS43 KJKL 030901 AAA
TAFJKL
TAF AMD
KJKL 030901Z 0309/0406 00000KT 4SM BR OVC003
     FM031200 VRB03KT 5SM BR OVC009
     FM031500 VRB03KT P6SM BKN015
     FM032000 VRB03KT P6SM VCSH SCT025 BKN140
     FM040200 00000KT 4SM BR BKN015=

USA.gov is the U.S. government's official web portal to all federal, state and local government web resources and services.